Time;durP1;ratioP1;P1;durP2;ratioP2;P2;SDS_P1;SDS_P2;PMS_P1;PMS_P2;Temp;Humidity;BMP_temperature;BMP_pressure;BME280_temperature;BME280_humidity;BME280_pressure;Samples;Min_cycle;Max_cycle;Signal;HPM_P1;HPM_P2
2022/02/23 00:00:19;;;;;;;15.47;3.43;;;7.70;99.90;;;;;;5143641;23;20155;-93
2022/02/23 00:02:20;;;;;;;15.53;3.30;;;7.70;99.90;;;;;;5093848;23;20152;-92
2022/02/23 00:04:21;;;;;;;12.80;2.93;;;7.70;99.90;;;;;;5118617;23;20614;-94
2022/02/23 00:06:21;;;;;;;18.57;3.50;;;7.60;99.90;;;;;;5143443;23;20273;-94
2022/02/23 00:08:22;;;;;;;14.80;3.67;;;7.60;99.90;;;;;;5093815;23;20177;-93
2022/02/23 00:10:23;;;;;;;17.77;3.10;;;7.70;99.90;;;;;;5118199;23;20665;-93
2022/02/23 00:12:23;;;;;;;17.50;2.67;;;7.60;99.90;;;;;;5093807;23;20240;-94
2022/02/23 00:14:24;;;;;;;22.87;3.27;;;7.80;99.90;;;;;;5118693;23;20515;-93
2022/02/23 00:16:25;;;;;;;20.10;3.17;;;7.90;99.90;;;;;;5118231;23;20621;-94
2022/02/23 00:18:26;;;;;;;10.17;2.57;;;8.00;99.90;;;;;;5118498;23;20156;-93
2022/02/23 00:20:26;;;;;;;17.52;2.72;;;7.90;99.90;;;;;;5093458;23;20199;-94
2022/02/23 00:22:29;;;;;;;18.05;3.72;;;7.80;99.90;;;;;;5093690;23;20160;-95
2022/02/23 00:24:30;;;;;;;15.30;3.10;;;7.80;99.90;;;;;;5093872;23;20252;-95
2022/02/23 00:26:34;;;;;;;16.57;3.33;;;7.70;99.90;;;;;;5143907;23;20194;-95
2022/02/23 00:28:35;;;;;;;12.93;2.97;;;7.70;99.90;;;;;;5093758;23;20473;-93
2022/02/23 00:30:36;;;;;;;13.50;2.90;;;7.70;99.90;;;;;;5143244;23;20159;-94
2022/02/23 00:32:36;;;;;;;18.17;3.47;;;7.60;99.90;;;;;;5093798;23;20149;-93
2022/02/23 00:34:37;;;;;;;13.40;2.70;;;7.60;99.90;;;;;;5118278;23;20176;-94
2022/02/23 00:36:38;;;;;;;12.90;2.97;;;7.50;99.90;;;;;;5118530;23;20622;-94
2022/02/23 00:38:39;;;;;;;15.23;2.80;;;7.60;99.90;;;;;;5118281;23;20535;-94
2022/02/23 00:40:41;;;;;;;10.50;2.30;;;7.80;99.90;;;;;;5118504;23;20157;-94
2022/02/23 00:42:42;;;;;;;16.77;2.40;;;7.70;99.90;;;;;;5118345;23;20147;-93
2022/02/23 00:44:43;;;;;;;12.20;2.35;;;7.60;99.90;;;;;;5118248;23;20686;-93
2022/02/23 00:46:44;;;;;;;16.97;2.30;;;7.60;99.90;;;;;;5142902;23;20597;-94
2022/02/23 00:48:45;;;;;;;14.63;2.40;;;7.50;99.90;;;;;;5118568;23;20148;-94
2022/02/23 00:50:46;;;;;;;12.82;2.72;;;7.50;99.90;;;;;;5118487;23;20674;-95
2022/02/23 00:52:47;;;;;;;12.27;2.42;;;7.50;99.90;;;;;;5119126;23;20152;-96
2022/02/23 00:54:47;;;;;;;18.85;2.80;;;7.60;99.90;;;;;;5143091;23;20203;-92
2022/02/23 00:56:49;;;;;;;15.17;2.77;;;7.50;99.90;;;;;;5093738;23;20303;-93
2022/02/23 00:58:50;;;;;;;14.30;3.00;;;7.40;99.90;;;;;;5118365;23;20163;-93
2022/02/23 01:00:51;;;;;;;16.60;2.90;;;7.40;99.90;;;;;;5093777;23;20153;-93
2022/02/23 01:02:51;;;;;;;13.27;3.00;;;7.30;99.90;;;;;;5117965;23;20148;-93
2022/02/23 01:04:54;;;;;;;13.13;2.33;;;7.30;99.90;;;;;;5093421;23;20195;-94
2022/02/23 01:06:54;;;;;;;24.43;2.80;;;7.30;99.90;;;;;;5118098;23;20196;-94
2022/02/23 01:08:55;;;;;;;14.13;2.70;;;7.30;99.90;;;;;;5143448;23;20197;-93
2022/02/23 01:10:56;;;;;;;13.83;2.47;;;7.20;99.90;;;;;;5093482;23;20171;-93
2022/02/23 01:12:57;;;;;;;12.40;1.87;;;7.20;99.90;;;;;;5118602;23;20155;-93
2022/02/23 01:14:57;;;;;;;19.53;2.13;;;7.10;99.90;;;;;;5093541;23;20177;-94
2022/02/23 01:17:01;;;;;;;15.60;2.50;;;7.10;99.90;;;;;;5093535;23;20235;-93
2022/02/23 01:19:03;;;;;;;17.37;3.13;;;7.00;99.90;;;;;;5118188;23;20156;-94
2022/02/23 01:21:04;;;;;;;14.87;2.90;;;7.10;99.90;;;;;;5118872;23;20172;-94
2022/02/23 01:23:04;;;;;;;15.17;2.03;;;7.10;99.90;;;;;;5094340;23;20161;-94
2022/02/23 01:25:06;;;;;;;15.40;2.30;;;7.10;99.90;;;;;;5119845;23;20250;-95
2022/02/23 01:27:06;;;;;;;8.23;2.00;;;7.10;99.90;;;;;;5120080;23;20191;-93
2022/02/23 01:29:07;;;;;;;11.77;1.93;;;7.00;99.90;;;;;;5119805;23;20148;-94
2022/02/23 01:31:08;;;;;;;10.37;2.10;;;6.90;99.90;;;;;;5144895;23;20586;-94
2022/02/23 01:33:09;;;;;;;15.27;2.70;;;6.90;99.90;;;;;;5095372;23;20155;-93
2022/02/23 01:35:10;;;;;;;16.07;2.50;;;6.80;99.90;;;;;;5144745;23;20171;-93
2022/02/23 01:37:12;;;;;;;13.47;2.23;;;6.80;99.90;;;;;;5095183;23;20595;-92
2022/02/23 01:39:13;;;;;;;11.87;2.03;;;6.70;99.90;;;;;;5144755;23;20159;-94
2022/02/23 01:41:17;;;;;;;17.87;2.33;;;6.70;99.90;;;;;;5094958;23;20164;-94
2022/02/23 01:43:18;;;;;;;15.03;2.00;;;6.80;99.90;;;;;;5144733;23;20148;-94
2022/02/23 01:45:19;;;;;;;11.80;2.10;;;6.90;99.90;;;;;;5094921;23;20248;-94
2022/02/23 01:47:20;;;;;;;15.90;2.90;;;6.90;99.90;;;;;;5119576;23;20247;-93
2022/02/23 01:49:20;;;;;;;17.80;2.67;;;6.80;99.90;;;;;;5120209;23;20579;-94
2022/02/23 01:51:21;;;;;;;14.53;2.20;;;6.80;99.90;;;;;;5119627;23;20168;-94
2022/02/23 01:53:22;;;;;;;12.80;2.40;;;6.80;99.90;;;;;;5095369;23;20153;-94
2022/02/23 01:55:23;;;;;;;16.80;2.73;;;6.70;99.90;;;;;;5094991;23;20180;-93
2022/02/23 01:57:24;;;;;;;19.77;2.20;;;6.60;99.90;;;;;;5119644;23;20571;-93
2022/02/23 01:59:25;;;;;;;12.57;2.40;;;6.60;99.90;;;;;;5119746;23;20244;-94
2022/02/23 02:01:25;;;;;;;15.83;2.60;;;6.50;99.90;;;;;;5120377;23;20667;-94
2022/02/23 02:03:26;;;;;;;15.93;2.53;;;6.60;99.90;;;;;;5144579;23;20152;-94
2022/02/23 02:05:27;;;;;;;15.20;2.43;;;6.50;99.90;;;;;;5094574;23;20189;-94
2022/02/23 02:07:28;;;;;;;13.03;2.00;;;6.50;99.90;;;;;;5119709;23;20218;-93
2022/02/23 02:09:28;;;;;;;14.17;2.20;;;6.50;99.90;;;;;;5119420;23;20148;-94
2022/02/23 02:11:29;;;;;;;15.63;2.43;;;6.40;99.90;;;;;;5119359;23;20151;-95
2022/02/23 02:13:30;;;;;;;10.83;2.13;;;6.40;99.90;;;;;;5119411;23;20145;-93
2022/02/23 02:15:31;;;;;;;13.73;2.27;;;6.40;99.90;;;;;;5119230;23;20268;-94
2022/02/23 02:17:31;;;;;;;13.07;2.10;;;6.40;99.90;;;;;;5119350;23;20155;-95
2022/02/23 02:19:35;;;;;;;14.17;2.20;;;6.30;99.90;;;;;;5144508;23;20495;-93
2022/02/23 02:21:56;;;;;;;12.60;2.13;;;6.30;99.90;;;;;;5144385;23;20171;-92
2022/02/23 02:23:56;;;;;;;13.50;2.10;;;6.30;99.90;;;;;;5144045;23;20186;-93
2022/02/23 02:25:57;;;;;;;13.80;2.27;;;6.30;99.90;;;;;;5094470;23;20200;-95
2022/02/23 02:27:58;;;;;;;16.17;2.27;;;6.30;99.90;;;;;;5119366;23;20471;-95
2022/02/23 02:29:59;;;;;;;12.37;1.97;;;6.30;99.90;;;;;;5119541;23;20152;-94
2022/02/23 02:32:02;;;;;;;17.33;2.40;;;6.30;99.90;;;;;;5119857;23;20182;-95
2022/02/23 02:34:02;;;;;;;12.80;2.10;;;6.30;99.90;;;;;;5119296;23;20356;-93
2022/02/23 02:36:03;;;;;;;12.53;2.10;;;6.30;99.90;;;;;;5094023;23;20220;-94
2022/02/23 02:38:04;;;;;;;10.47;1.80;;;6.30;99.90;;;;;;5119466;23;20160;-94
2022/02/23 02:40:06;;;;;;;9.33;2.07;;;6.30;99.90;;;;;;5094844;23;20663;-92
2022/02/23 02:42:07;;;;;;;13.20;2.57;;;6.30;99.90;;;;;;5119423;23;20181;-95
2022/02/23 02:44:08;;;;;;;11.17;2.17;;;6.20;99.90;;;;;;5119008;23;20155;-93
2022/02/23 02:46:09;;;;;;;14.80;2.03;;;6.20;99.90;;;;;;5094385;23;20659;-94
2022/02/23 02:48:09;;;;;;;15.90;2.60;;;6.10;99.90;;;;;;5119489;23;20559;-93
2022/02/23 02:50:10;;;;;;;12.63;2.10;;;6.10;99.90;;;;;;5119612;23;20267;-94
2022/02/23 02:52:11;;;;;;;9.43;1.87;;;6.10;99.90;;;;;;5119202;23;20168;-94
2022/02/23 02:54:12;;;;;;;10.33;2.57;;;6.10;99.90;;;;;;5143759;23;20191;-92
2022/02/23 02:56:12;;;;;;;8.53;1.97;;;6.10;99.90;;;;;;5143936;23;20175;-94
2022/02/23 02:58:13;;;;;;;14.77;2.30;;;6.10;99.90;;;;;;5094516;23;20168;-93
2022/02/23 03:00:15;;;;;;;17.67;2.40;;;6.10;99.90;;;;;;5094312;23;20157;-92
2022/02/23 03:02:16;;;;;;;12.80;2.03;;;6.10;99.90;;;;;;5118896;23;20157;-93
2022/02/23 03:04:17;;;;;;;16.17;2.03;;;6.10;99.90;;;;;;5143945;23;20593;-93
2022/02/23 03:06:18;;;;;;;15.43;2.10;;;6.00;99.90;;;;;;5094679;23;20192;-93
2022/02/23 03:08:19;;;;;;;14.00;2.03;;;6.10;99.90;;;;;;5119140;23;20148;-93
2022/02/23 03:10:19;;;;;;;13.77;2.00;;;6.10;99.90;;;;;;5119269;23;20239;-93
2022/02/23 03:12:20;;;;;;;14.37;2.37;;;6.10;99.90;;;;;;5143929;23;20179;-93
2022/02/23 03:14:21;;;;;;;24.00;2.63;;;6.10;99.90;;;;;;5094295;23;20153;-93
2022/02/23 03:16:22;;;;;;;18.47;2.20;;;6.10;99.90;;;;;;5119128;23;20152;-93
2022/02/23 03:18:22;;;;;;;20.20;2.27;;;6.00;99.90;;;;;;5094472;23;20185;-95
2022/02/23 03:20:23;;;;;;;15.17;2.10;;;6.10;99.90;;;;;;5144034;23;20475;-93
2022/02/23 03:22:24;;;;;;;20.03;2.67;;;6.10;99.90;;;;;;5119044;23;20159;-93
2022/02/23 03:24:25;;;;;;;13.93;2.00;;;6.10;99.90;;;;;;5118736;23;20172;-94
2022/02/23 03:26:25;;;;;;;16.87;2.17;;;6.10;99.90;;;;;;5094366;23;20665;-93
2022/02/23 03:28:27;;;;;;;12.20;2.20;;;6.10;99.90;;;;;;5094353;23;20149;-93
2022/02/23 03:30:27;;;;;;;18.10;2.13;;;6.00;99.90;;;;;;5118870;23;20152;-93
2022/02/23 03:32:28;;;;;;;13.97;2.43;;;6.00;99.90;;;;;;5143970;23;20152;-93
2022/02/23 03:34:29;;;;;;;11.47;2.20;;;6.10;99.90;;;;;;5094425;23;20180;-92
2022/02/23 03:36:30;;;;;;;17.60;2.70;;;6.00;99.90;;;;;;5119116;23;20148;-94
2022/02/23 03:38:31;;;;;;;17.60;2.40;;;6.00;99.90;;;;;;5094014;23;20160;-93
2022/02/23 03:40:34;;;;;;;12.93;1.83;;;6.00;99.90;;;;;;5119112;23;20588;-93
2022/02/23 03:42:35;;;;;;;14.13;2.40;;;6.00;99.90;;;;;;5118808;23;20230;-93
2022/02/23 03:44:36;;;;;;;15.90;2.63;;;6.00;99.90;;;;;;5119162;23;20168;-92
2022/02/23 03:46:37;;;;;;;11.83;2.13;;;6.00;99.90;;;;;;5119325;23;20266;-93
2022/02/23 03:48:39;;;;;;;11.73;2.53;;;6.00;99.90;;;;;;5143827;23;20151;-93
2022/02/23 03:50:40;;;;;;;14.70;2.60;;;6.10;99.90;;;;;;5118903;23;20152;-94
2022/02/23 03:52:42;;;;;;;16.30;3.03;;;6.10;99.90;;;;;;5119141;23;20164;-95
2022/02/23 03:54:43;;;;;;;19.27;2.50;;;6.10;99.90;;;;;;5093988;23;20616;-92
2022/02/23 03:56:44;;;;;;;18.27;2.97;;;6.10;99.90;;;;;;5118499;23;20159;-92
2022/02/23 03:58:44;;;;;;;14.83;2.27;;;6.10;99.90;;;;;;5118610;23;20149;-94
2022/02/23 04:00:45;;;;;;;22.87;3.00;;;6.10;99.90;;;;;;5143834;23;20664;-93
2022/02/23 04:02:46;;;;;;;12.07;2.27;;;6.10;99.90;;;;;;5118705;23;20598;-94
2022/02/23 04:04:46;;;;;;;17.33;2.60;;;6.00;99.90;;;;;;5118897;23;20255;-94
2022/02/23 04:06:49;;;;;;;13.13;1.97;;;5.90;99.90;;;;;;5118527;23;20578;-92
2022/02/23 04:08:49;;;;;;;21.50;2.57;;;5.90;99.90;;;;;;5118753;23;20152;-92
2022/02/23 04:10:50;;;;;;;16.23;2.50;;;5.90;99.90;;;;;;5118653;23;20199;-94
2022/02/23 04:12:51;;;;;;;14.03;2.53;;;5.90;99.90;;;;;;5118610;23;20148;-93
2022/02/23 04:14:52;;;;;;;15.40;3.60;;;5.90;99.90;;;;;;5118351;23;20250;-94
2022/02/23 04:16:53;;;;;;;22.30;6.43;;;5.90;99.90;;;;;;5143186;23;20159;-94
2022/02/23 04:18:54;;;;;;;47.17;19.30;;;5.90;99.90;;;;;;5094072;23;20516;-94
2022/02/23 04:20:54;;;;;;;38.77;12.57;;;5.80;99.90;;;;;;5118413;23;20157;-94
2022/02/23 04:22:55;;;;;;;28.33;11.07;;;5.80;99.90;;;;;;5093887;23;20153;-93
2022/02/23 04:24:56;;;;;;;26.00;7.77;;;5.70;99.90;;;;;;5093825;23;20183;-94
2022/02/23 04:26:56;;;;;;;23.20;8.63;;;5.70;99.90;;;;;;5118639;23;20223;-93
2022/02/23 04:28:57;;;;;;;21.07;11.17;;;5.80;99.90;;;;;;5143371;23;20147;-93
2022/02/23 04:30:58;;;;;;;25.53;9.97;;;5.80;99.90;;;;;;5094004;23;20228;-94
2022/02/23 04:32:59;;;;;;;22.20;5.20;;;5.90;99.90;;;;;;5143249;23;20155;-93
2022/02/23 04:35:00;;;;;;;30.07;4.67;;;5.90;99.90;;;;;;5093888;23;20249;-93
2022/02/23 04:37:01;;;;;;;17.00;5.77;;;5.90;99.90;;;;;;5118831;23;20163;-94
2022/02/23 04:39:03;;;;;;;20.87;6.13;;;6.00;99.90;;;;;;5118419;23;20160;-94
2022/02/23 04:41:05;;;;;;;21.90;3.77;;;6.00;99.90;;;;;;5118103;23;20152;-95
2022/02/23 04:43:06;;;;;;;20.63;4.13;;;6.10;99.90;;;;;;5094118;23;20191;-95
2022/02/23 04:45:07;;;;;;;12.23;2.83;;;6.10;99.90;;;;;;5143094;23;20683;-94
2022/02/23 04:47:08;;;;;;;16.13;2.63;;;6.00;99.90;;;;;;5093828;23;20184;-94
2022/02/23 04:49:08;;;;;;;15.93;2.60;;;6.00;99.90;;;;;;5118478;23;20606;-93
2022/02/23 04:51:09;;;;;;;15.50;3.13;;;5.90;99.90;;;;;;5118623;23;20250;-92
2022/02/23 04:53:10;;;;;;;28.17;7.03;;;5.90;99.90;;;;;;5118456;23;20147;-94
2022/02/23 04:55:11;;;;;;;24.17;8.30;;;5.90;99.90;;;;;;5093815;23;20514;-94
2022/02/23 04:57:11;;;;;;;16.17;5.57;;;5.90;99.90;;;;;;5093784;23;20172;-94
2022/02/23 04:59:12;;;;;;;18.33;5.63;;;6.00;99.90;;;;;;5093504;23;20216;-93
2022/02/23 05:01:13;;;;;;;20.73;3.67;;;6.00;99.90;;;;;;5093658;23;20168;-93
2022/02/23 05:03:15;;;;;;;19.23;3.80;;;6.00;99.90;;;;;;5143292;23;20148;-93
2022/02/23 05:05:16;;;;;;;17.90;3.53;;;6.00;99.90;;;;;;5118134;23;20259;-93
2022/02/23 05:07:18;;;;;;;24.37;4.00;;;5.90;99.90;;;;;;5118856;23;20152;-94
2022/02/23 05:09:19;;;;;;;22.43;4.60;;;6.00;99.90;;;;;;5143190;23;20151;-93
2022/02/23 05:11:20;;;;;;;20.20;4.70;;;6.00;99.90;;;;;;5093715;23;20195;-92
2022/02/23 05:13:21;;;;;;;18.03;3.77;;;5.90;99.90;;;;;;5118287;23;20154;-94
2022/02/23 05:15:22;;;;;;;15.90;3.20;;;6.10;99.90;;;;;;5118001;23;20219;-94
2022/02/23 05:17:23;;;;;;;20.23;3.33;;;5.80;99.90;;;;;;5118137;23;20148;-93
2022/02/23 05:19:24;;;;;;;21.37;3.47;;;5.50;99.90;;;;;;5093755;23;20164;-93
2022/02/23 05:21:25;;;;;;;14.20;2.97;;;5.30;99.90;;;;;;5093615;23;20149;-93
2022/02/23 05:23:27;;;;;;;10.73;2.67;;;5.30;99.90;;;;;;5117894;23;20148;-93
2022/02/23 05:25:28;;;;;;;13.23;2.90;;;5.20;99.90;;;;;;5117976;23;20176;-94
2022/02/23 05:27:29;;;;;;;15.77;3.00;;;5.10;99.90;;;;;;5118087;23;20203;-91
2022/02/23 05:29:33;;;;;;;11.80;2.97;;;5.10;99.90;;;;;;5118815;23;20593;-94
2022/02/23 05:31:34;;;;;;;18.60;2.80;;;4.90;99.90;;;;;;5142810;23;20213;-93
2022/02/23 05:33:34;;;;;;;16.87;3.30;;;4.70;99.90;;;;;;5143004;23;20148;-93
2022/02/23 05:35:35;;;;;;;23.10;4.00;;;4.70;99.90;;;;;;5093356;23;20592;-93
2022/02/23 05:37:37;;;;;;;20.73;3.30;;;4.60;99.90;;;;;;5118005;23;20214;-92
2022/02/23 05:39:38;;;;;;;13.70;3.43;;;4.70;99.90;;;;;;5142868;23;20502;-94
2022/02/23 05:41:39;;;;;;;18.93;4.17;;;4.70;99.90;;;;;;5118580;23;20152;-94
2022/02/23 05:43:40;;;;;;;16.33;3.90;;;4.60;99.90;;;;;;5118678;23;20149;-93
2022/02/23 05:45:41;;;;;;;16.00;3.50;;;4.50;99.90;;;;;;5118097;23;20192;-94
2022/02/23 05:47:42;;;;;;;15.83;3.70;;;4.40;99.90;;;;;;5143366;23;20593;-94
2022/02/23 05:49:42;;;;;;;18.63;4.50;;;4.40;99.90;;;;;;5118418;23;20210;-93
2022/02/23 05:51:46;;;;;;;24.60;4.70;;;4.30;99.90;;;;;;5118127;23;20203;-95
2022/02/23 05:53:47;;;;;;;18.53;4.10;;;4.20;99.90;;;;;;5118396;23;20148;-93
2022/02/23 05:55:48;;;;;;;13.07;3.90;;;4.30;99.90;;;;;;5142813;23;20186;-92
2022/02/23 05:57:48;;;;;;;16.10;4.30;;;4.30;99.90;;;;;;5093485;23;20179;-93
2022/02/23 05:59:50;;;;;;;21.57;4.57;;;4.20;99.90;;;;;;5117783;23;20160;-93
2022/02/23 06:01:51;;;;;;;16.20;4.83;;;4.20;99.90;;;;;;5118071;23;20149;-94
2022/02/23 06:03:52;;;;;;;22.10;4.97;;;4.20;99.90;;;;;;5118160;23;20155;-94
2022/02/23 06:05:53;;;;;;;18.13;4.70;;;4.10;99.90;;;;;;5117817;23;20192;-94
2022/02/23 06:07:57;;;;;;;19.13;4.77;;;4.10;99.90;;;;;;5093795;23;20156;-93
2022/02/23 06:09:58;;;;;;;20.80;5.30;;;4.00;99.90;;;;;;5143255;23;20590;-93
2022/02/23 06:11:59;;;;;;;20.13;4.90;;;4.10;99.90;;;;;;5119786;23;20148;-94
2022/02/23 06:14:00;;;;;;;26.87;5.83;;;4.20;99.90;;;;;;5095141;23;20670;-94
2022/02/23 06:16:02;;;;;;;18.73;5.37;;;4.20;99.90;;;;;;5119388;23;20172;-94
2022/02/23 06:18:02;;;;;;;23.57;5.87;;;4.30;99.90;;;;;;5119669;23;20148;-93
2022/02/23 06:20:04;;;;;;;17.87;6.00;;;4.20;99.90;;;;;;5144645;23;20242;-95
2022/02/23 06:22:04;;;;;;;19.93;5.77;;;4.30;99.90;;;;;;5120011;23;20622;-93
2022/02/23 06:24:05;;;;;;;23.50;6.00;;;4.30;99.90;;;;;;5119515;23;20192;-93
2022/02/23 06:26:06;;;;;;;18.50;5.33;;;4.20;99.90;;;;;;5145045;23;20225;-93
2022/02/23 06:28:07;;;;;;;19.87;5.63;;;4.20;99.90;;;;;;5119123;23;20153;-95
2022/02/23 06:30:08;;;;;;;18.87;6.67;;;4.10;99.90;;;;;;5144178;23;20152;-93
2022/02/23 06:32:09;;;;;;;27.07;8.47;;;4.10;99.90;;;;;;5095348;23;20145;-93
2022/02/23 06:34:11;;;;;;;23.30;9.63;;;4.10;99.90;;;;;;5094710;23;20636;-91
2022/02/23 06:36:12;;;;;;;31.03;8.23;;;4.10;99.90;;;;;;5119628;23;20156;-91
2022/02/23 06:38:13;;;;;;;26.70;6.67;;;4.00;99.90;;;;;;5144210;23;20166;-92
2022/02/23 06:40:14;;;;;;;32.03;6.73;;;4.00;99.90;;;;;;5119043;23;20156;-90
2022/02/23 06:42:15;;;;;;;26.37;6.63;;;4.00;99.90;;;;;;5094396;23;20598;-91
2022/02/23 06:44:20;;;;;;;26.63;6.50;;;4.00;99.90;;;;;;5118968;23;20239;-90
2022/02/23 06:46:22;;;;;;;23.83;6.70;;;3.90;99.90;;;;;;5144027;23;20266;-91
2022/02/23 06:48:23;;;;;;;22.63;5.83;;;3.90;99.90;;;;;;5144285;23;20936;-92
2022/02/23 06:50:23;;;;;;;24.03;6.50;;;3.90;99.90;;;;;;5119203;23;20163;-91
2022/02/23 06:52:31;;;;;;;21.03;6.33;;;4.00;99.90;;;;;;5094528;23;20718;-91
2022/02/23 06:54:32;;;;;;;19.03;6.17;;;4.00;99.90;;;;;;5119025;23;20171;-92
2022/02/23 06:56:33;;;;;;;24.93;6.57;;;4.10;99.90;;;;;;5119243;23;20159;-91
2022/02/23 06:58:44;;;;;;;19.63;6.03;;;4.20;99.90;;;;;;5119262;23;20169;-91
2022/02/23 07:00:45;;;;;;;29.50;6.30;;;4.40;99.90;;;;;;5119357;23;20220;-91
2022/02/23 07:02:45;;;;;;;19.23;5.43;;;4.60;99.90;;;;;;5094509;23;20582;-90
2022/02/23 07:04:46;;;;;;;20.17;5.53;;;4.80;99.90;;;;;;5094052;23;20604;-91
2022/02/23 07:06:47;;;;;;;23.83;5.80;;;5.00;99.90;;;;;;5118605;23;20216;-91
2022/02/23 07:08:49;;;;;;;30.67;6.83;;;5.20;99.90;;;;;;5119016;23;20179;-91
2022/02/23 07:10:49;;;;;;;20.27;5.77;;;5.20;99.90;;;;;;5119168;23;20152;-92
2022/02/23 07:12:52;;;;;;;20.23;5.77;;;5.70;99.90;;;;;;5143956;23;20231;-93
2022/02/23 07:14:52;;;;;;;20.47;4.90;;;5.70;99.90;;;;;;5118950;23;20298;-92
2022/02/23 07:16:53;;;;;;;20.33;4.93;;;5.90;99.90;;;;;;5143941;23;20155;-92
2022/02/23 07:18:54;;;;;;;23.27;5.30;;;6.00;99.90;;;;;;5094625;23;20516;-93
2022/02/23 07:20:55;;;;;;;18.50;4.40;;;6.10;99.90;;;;;;5119120;23;20156;-91
2022/02/23 07:22:55;;;;;;;24.77;5.83;;;6.10;99.90;;;;;;5094249;23;20249;-92
2022/02/23 07:24:56;;;;;;;17.47;4.47;;;6.40;99.90;;;;;;5143429;23;20200;-94
2022/02/23 07:26:58;;;;;;;22.43;5.10;;;6.60;99.90;;;;;;5118473;23;20192;-91
2022/02/23 07:28:58;;;;;;;22.20;5.17;;;6.90;99.90;;;;;;5119088;23;20236;-93
2022/02/23 07:30:59;;;;;;;26.83;5.10;;;7.20;99.90;;;;;;5143530;23;20152;-92
2022/02/23 07:33:00;;;;;;;19.27;4.67;;;7.30;99.90;;;;;;5094139;23;20156;-91
2022/02/23 07:35:03;;;;;;;19.13;4.97;;;7.40;99.90;;;;;;5118971;23;20186;-92
2022/02/23 07:37:04;;;;;;;18.83;5.20;;;7.50;99.90;;;;;;5118797;23;20148;-91
2022/02/23 07:39:07;;;;;;;23.40;5.43;;;7.50;99.90;;;;;;5094479;23;20176;-93
2022/02/23 07:41:10;;;;;;;22.30;4.97;;;7.30;99.90;;;;;;5118720;23;20159;-91
2022/02/23 07:43:11;;;;;;;21.93;4.10;;;7.10;99.90;;;;;;5119001;23;20175;-92
2022/02/23 07:45:12;;;;;;;16.97;4.77;;;6.90;99.90;;;;;;5118577;23;20673;-92
2022/02/23 07:47:14;;;;;;;21.90;4.87;;;6.80;99.90;;;;;;5118699;23;20623;-92
2022/02/23 07:49:16;;;;;;;20.25;5.97;;;7.20;99.90;;;;;;5118862;23;20148;-91
2022/02/23 07:51:19;;;;;;;16.17;5.07;;;7.50;99.90;;;;;;5118486;23;20172;-91
2022/02/23 07:53:20;;;;;;;20.43;5.23;;;7.70;99.90;;;;;;5143428;23;20206;-92
2022/02/23 07:55:22;;;;;;;19.33;4.73;;;7.90;99.90;;;;;;5143652;23;20574;-92
2022/02/23 07:57:22;;;;;;;23.95;5.20;;;7.90;99.90;;;;;;5094301;23;20176;-92
2022/02/23 07:59:24;;;;;;;17.27;4.60;;;7.70;99.90;;;;;;5143591;23;20195;-91
2022/02/23 08:01:30;;;;;;;19.00;4.50;;;7.60;99.90;;;;;;5118367;23;20160;-91
2022/02/23 08:03:32;;;;;;;18.33;4.23;;;7.50;99.90;;;;;;5118547;23;20587;-91
2022/02/23 08:05:33;;;;;;;27.90;5.00;;;7.50;99.90;;;;;;5143332;23;20179;-92
2022/02/23 08:07:34;;;;;;;16.43;4.37;;;7.50;99.90;;;;;;5094003;23;20159;-92
2022/02/23 08:09:35;;;;;;;26.87;5.20;;;7.60;99.90;;;;;;5118607;23;20178;-92
2022/02/23 08:11:37;;;;;;;17.50;4.10;;;7.70;99.90;;;;;;5143306;23;20183;-92
2022/02/23 08:13:37;;;;;;;21.03;4.47;;;7.70;99.90;;;;;;5143441;23;20143;-92
2022/02/23 08:20:17;;;;;;;17.17;4.53;;;8.70;99.90;;;;;;5143156;23;20158;-91
2022/02/23 08:22:18;;;;;;;18.40;3.92;;;9.00;99.90;;;;;;5093683;23;20169;-94
2022/02/23 08:24:19;;;;;;;18.27;4.70;;;9.70;99.90;;;;;;5093717;23;20157;-92
2022/02/23 08:26:19;;;;;;;23.33;4.88;;;9.90;99.90;;;;;;5118292;23;20294;-93
2022/02/23 08:28:20;;;;;;;19.35;4.35;;;10.30;99.90;;;;;;5118367;23;20153;-94
2022/02/23 08:30:21;;;;;;;19.00;4.38;;;10.20;99.90;;;;;;5143443;23;20147;-91
2022/02/23 08:32:26;;;;;;;16.08;4.40;;;10.40;99.90;;;;;;5117939;23;20231;-92
2022/02/23 08:34:27;;;;;;;17.27;4.25;;;10.70;99.90;;;;;;5118465;23;20168;-93
2022/02/23 08:36:27;;;;;;;19.98;4.43;;;10.60;99.90;;;;;;5143548;23;20143;-91
2022/02/23 08:38:28;;;;;;;20.80;4.45;;;10.50;99.90;;;;;;5118422;23;20239;-92
2022/02/23 08:40:29;;;;;;;14.95;4.13;;;10.90;99.90;;;;;;5143257;23;20155;-93
2022/02/23 08:42:30;;;;;;;18.08;4.10;;;10.50;99.90;;;;;;5093752;23;20152;-91
2022/02/23 08:44:31;;;;;;;18.73;4.40;;;10.00;99.90;;;;;;5093717;23;20172;-92
2022/02/23 08:46:33;;;;;;;15.85;4.25;;;10.20;99.90;;;;;;5118189;23;20279;-92
2022/02/23 08:48:34;;;;;;;24.92;4.45;;;10.20;99.90;;;;;;5118406;23;20235;-92
2022/02/23 08:50:36;;;;;;;16.42;3.80;;;10.50;99.90;;;;;;5118496;23;20152;-92
2022/02/23 08:52:37;;;;;;;13.48;3.90;;;10.80;99.90;;;;;;5118240;23;20164;-91
2022/02/23 08:54:38;;;;;;;20.58;3.90;;;10.90;99.90;;;;;;5143105;23;20641;-92
2022/02/23 08:56:39;;;;;;;12.13;3.55;;;11.00;99.90;;;;;;5093701;23;20626;-92
2022/02/23 08:58:40;;;;;;;22.08;4.00;;;10.80;99.90;;;;;;5118226;23;20152;-92
2022/02/23 09:00:41;;;;;;;19.52;4.43;;;11.20;99.90;;;;;;5143056;23;20153;-93
2022/02/23 09:02:41;;;;;;;21.13;4.15;;;11.10;99.90;;;;;;5093546;23;20191;-93
2022/02/23 09:04:43;;;;;;;14.20;3.25;;;11.50;99.90;;;;;;5142905;23;20167;-92
2022/02/23 09:06:44;;;;;;;19.63;4.38;;;11.50;99.90;;;;;;5093616;23;20191;-93
2022/02/23 09:08:44;;;;;;;17.52;4.00;;;11.80;99.90;;;;;;5142802;23;20156;-91
2022/02/23 09:10:45;;;;;;;15.05;3.35;;;11.60;99.90;;;;;;5093421;23;20153;-91
2022/02/23 09:12:47;;;;;;;14.02;3.95;;;11.70;99.90;;;;;;5118089;23;20163;-91
2022/02/23 09:14:48;;;;;;;17.17;3.72;;;12.00;99.90;;;;;;5093489;23;20191;-92
2022/02/23 09:16:49;;;;;;;16.38;4.30;;;11.80;99.90;;;;;;5143144;23;20152;-92
2022/02/23 09:18:50;;;;;;;14.50;3.42;;;12.00;99.90;;;;;;5118294;23;20155;-93
2022/02/23 09:20:51;;;;;;;14.45;3.40;;;11.90;99.90;;;;;;5118001;23;20160;-93
2022/02/23 09:22:52;;;;;;;17.70;4.05;;;11.70;99.90;;;;;;5093476;23;20156;-93
2022/02/23 09:24:53;;;;;;;12.68;3.38;;;12.00;99.90;;;;;;5117863;23;20172;-91
2022/02/23 09:26:55;;;;;;;18.05;3.58;;;11.90;99.90;;;;;;5093396;23;20255;-92
2022/02/23 09:28:57;;;;;;;18.63;3.45;;;12.20;99.90;;;;;;5093542;23;20145;-93
2022/02/23 09:30:58;;;;;;;21.02;4.40;;;12.40;99.90;;;;;;5118070;23;20156;-92
2022/02/23 09:32:58;;;;;;;17.60;4.10;;;12.60;99.90;;;;;;5143020;23;20148;-92
2022/02/23 09:34:59;;;;;;;17.23;3.80;;;12.70;99.90;;;;;;5093463;23;20179;-92
2022/02/23 09:37:00;;;;;;;17.38;3.53;;;12.70;99.90;;;;;;5118253;23;20156;-92
2022/02/23 09:39:01;;;;;;;12.48;3.03;;;13.00;99.90;;;;;;5093875;23;20611;-93
2022/02/23 09:41:04;;;;;;;17.38;3.83;;;12.90;99.90;;;;;;5143143;23;20166;-93
2022/02/23 09:43:06;;;;;;;17.88;3.45;;;13.00;99.90;;;;;;5118160;23;20159;-92
2022/02/23 09:45:07;;;;;;;14.07;3.55;;;13.10;99.90;;;;;;5119184;23;20171;-91
2022/02/23 09:47:09;;;;;;;18.45;3.30;;;12.90;99.90;;;;;;5119627;23;20188;-92
2022/02/23 09:49:11;;;;;;;13.70;3.28;;;12.80;99.90;;;;;;5119796;23;20588;-93
2022/02/23 09:51:12;;;;;;;15.13;3.10;;;12.30;99.90;;;;;;5119430;23;20170;-91
2022/02/23 09:53:15;;;;;;;15.93;3.25;;;11.80;99.90;;;;;;5119434;23;20152;-93
2022/02/23 09:55:16;;;;;;;19.65;3.30;;;11.90;99.90;;;;;;5119375;23;20173;-93
2022/02/23 09:57:18;;;;;;;18.90;3.70;;;12.20;99.90;;;;;;5119718;23;20162;-94
2022/02/23 09:59:19;;;;;;;13.13;3.60;;;12.20;99.90;;;;;;5144491;23;20144;-93
2022/02/23 10:01:27;;;;;;;19.85;4.05;;;11.70;99.90;;;;;;5119719;23;20178;-93
2022/02/23 10:03:29;;;;;;;11.52;3.33;;;11.60;99.90;;;;;;5119339;23;20207;-92
2022/02/23 10:05:39;;;;;;;16.45;3.45;;;11.30;99.90;;;;;;5144284;23;20650;-92
2022/02/23 10:07:40;;;;;;;20.67;3.20;;;11.00;99.90;;;;;;5119376;23;20159;-94
2022/02/23 10:09:42;;;;;;;12.75;3.22;;;10.60;99.90;;;;;;5144124;23;20226;-93
2022/02/23 10:11:46;;;;;;;18.83;3.80;;;10.70;99.90;;;;;;5119144;23;20602;-91
2022/02/23 10:13:51;;;;;;;36.15;15.65;;;10.70;99.90;;;;;;5119292;23;20236;-91
2022/02/23 10:15:53;;;;;;;22.48;4.70;;;10.50;99.90;;;;;;5119160;23;20164;-92
2022/02/23 10:17:53;;;;;;;15.32;3.88;;;10.50;99.90;;;;;;5119456;23;20191;-93
2022/02/23 10:19:56;;;;;;;18.92;4.00;;;10.60;99.90;;;;;;5119158;23;20144;-93
2022/02/23 10:22:02;;;;;;;18.10;3.25;;;10.70;99.90;;;;;;5143925;23;20148;-93
2022/02/23 10:24:38;;;;;;;17.13;3.58;;;10.70;99.90;;;;;;5119223;23;20159;-91
2022/02/23 10:26:40;;;;;;;22.35;3.28;;;10.70;99.90;;;;;;5045586;23;20221;-93
2022/02/23 10:28:41;;;;;;;13.45;3.80;;;10.80;99.90;;;;;;5073332;23;20149;-93
2022/02/23 10:30:51;;;;;;;18.92;3.90;;;11.00;99.90;;;;;;5144438;23;20202;-94
2022/02/23 10:32:54;;;;;;;17.67;3.45;;;10.90;99.90;;;;;;5119401;23;20634;-92
2022/02/23 10:35:01;;;;;;;17.50;2.92;;;11.10;99.90;;;;;;5119530;23;20172;-91